sensor_id;sensor_type;location;lat;lon;timestamp;pressure;altitude;pressure_sealevel;temperature;humidity
10202;BME280;5143;42.584;23.164;2023-04-20T00:01:45;92211.25;;;8.19;100.00
10202;BME280;5143;42.584;23.164;2023-04-20T00:04:14;92220.09;;;8.14;100.00
10202;BME280;5143;42.584;23.164;2023-04-20T00:06:41;92224.38;;;8.21;100.00
10202;BME280;5143;42.584;23.164;2023-04-20T00:09:08;92218.66;;;8.19;100.00
10202;BME280;5143;42.584;23.164;2023-04-20T00:11:35;92218.00;;;8.24;100.00
10202;BME280;5143;42.584;23.164;2023-04-20T00:14:01;92217.34;;;8.29;100.00
10202;BME280;5143;42.584;23.164;2023-04-20T00:16:28;92214.63;;;8.29;100.00
10202;BME280;5143;42.584;23.164;2023-04-20T00:18:55;92210.94;;;8.32;100.00
10202;BME280;5143;42.584;23.164;2023-04-20T00:21:23;92213.13;;;8.28;100.00
10202;BME280;5143;42.584;23.164;2023-04-20T00:23:50;92188.06;;;8.04;100.00
10202;BME280;5143;42.584;23.164;2023-04-20T00:26:17;92209.28;;;8.20;100.00
10202;BME280;5143;42.584;23.164;2023-04-20T00:28:45;92204.59;;;8.20;100.00
10202;BME280;5143;42.584;23.164;2023-04-20T00:31:12;92206.69;;;8.11;100.00
10202;BME280;5143;42.584;23.164;2023-04-20T00:33:39;92209.06;;;8.03;100.00
10202;BME280;5143;42.584;23.164;2023-04-20T00:36:06;92196.22;;;8.04;100.00
10202;BME280;5143;42.584;23.164;2023-04-20T00:38:34;92205.22;;;8.10;100.00
10202;BME280;5143;42.584;23.164;2023-04-20T00:41:01;92198.19;;;8.03;100.00
10202;BME280;5143;42.584;23.164;2023-04-20T00:43:28;92200.78;;;8.12;100.00
10202;BME280;5143;42.584;23.164;2023-04-20T00:45:55;92195.69;;;8.20;100.00
10202;BME280;5143;42.584;23.164;2023-04-20T00:48:21;92190.88;;;8.09;100.00
10202;BME280;5143;42.584;23.164;2023-04-20T00:50:49;92186.31;;;8.01;100.00
10202;BME280;5143;42.584;23.164;2023-04-20T00:53:16;92186.91;;;8.10;100.00
10202;BME280;5143;42.584;23.164;2023-04-20T00:55:45;92192.16;;;8.14;100.00
10202;BME280;5143;42.584;23.164;2023-04-20T00:58:12;92183.53;;;8.15;100.00
10202;BME280;5143;42.584;23.164;2023-04-20T01:00:39;92193.22;;;8.22;100.00
10202;BME280;5143;42.584;23.164;2023-04-20T01:03:06;92183.22;;;8.28;100.00
10202;BME280;5143;42.584;23.164;2023-04-20T01:05:33;92178.31;;;8.32;100.00
10202;BME280;5143;42.584;23.164;2023-04-20T01:07:59;92184.47;;;8.32;100.00
10202;BME280;5143;42.584;23.164;2023-04-20T01:10:26;92181.81;;;8.38;100.00
10202;BME280;5143;42.584;23.164;2023-04-20T01:12:54;92180.19;;;8.46;100.00
10202;BME280;5143;42.584;23.164;2023-04-20T01:15:21;92186.66;;;8.49;100.00
10202;BME280;5143;42.584;23.164;2023-04-20T01:17:48;92182.38;;;8.42;100.00
10202;BME280;5143;42.584;23.164;2023-04-20T01:20:16;92184.66;;;8.49;100.00
10202;BME280;5143;42.584;23.164;2023-04-20T01:22:47;92168.53;;;8.40;100.00
10202;BME280;5143;42.584;23.164;2023-04-20T01:25:15;92180.69;;;8.45;100.00
10202;BME280;5143;42.584;23.164;2023-04-20T01:27:42;92177.63;;;8.37;100.00
10202;BME280;5143;42.584;23.164;2023-04-20T01:30:10;92180.19;;;8.46;100.00
10202;BME280;5143;42.584;23.164;2023-04-20T01:32:37;92183.28;;;8.34;100.00
10202;BME280;5143;42.584;23.164;2023-04-20T01:35:05;92175.94;;;8.40;100.00
10202;BME280;5143;42.584;23.164;2023-04-20T01:37:32;92177.91;;;8.39;100.00
10202;BME280;5143;42.584;23.164;2023-04-20T01:40:00;92183.34;;;8.39;100.00
10202;BME280;5143;42.584;23.164;2023-04-20T01:42:28;92182.66;;;8.44;100.00
10202;BME280;5143;42.584;23.164;2023-04-20T01:44:55;92178.16;;;8.41;100.00
10202;BME280;5143;42.584;23.164;2023-04-20T01:47:21;92179.22;;;8.49;100.00
10202;BME280;5143;42.584;23.164;2023-04-20T01:49:48;92181.25;;;8.54;100.00
10202;BME280;5143;42.584;23.164;2023-04-20T01:52:15;92181.06;;;8.58;100.00
10202;BME280;5143;42.584;23.164;2023-04-20T01:54:42;92173.91;;;8.60;100.00
10202;BME280;5143;42.584;23.164;2023-04-20T01:57:10;92173.84;;;8.55;100.00
10202;BME280;5143;42.584;23.164;2023-04-20T01:59:37;92171.81;;;8.50;100.00
10202;BME280;5143;42.584;23.164;2023-04-20T02:02:03;92169.09;;;8.50;100.00
10202;BME280;5143;42.584;23.164;2023-04-20T02:04:30;92165.38;;;8.47;100.00
10202;BME280;5143;42.584;23.164;2023-04-20T02:06:57;92162.28;;;8.34;100.00
10202;BME280;5143;42.584;23.164;2023-04-20T02:09:24;92166.41;;;8.29;100.00
10202;BME280;5143;42.584;23.164;2023-04-20T02:11:50;92160.31;;;8.35;100.00
10202;BME280;5143;42.584;23.164;2023-04-20T02:14:19;92163.09;;;8.40;100.00
10202;BME280;5143;42.584;23.164;2023-04-20T02:16:45;92165.00;;;8.34;100.00
10202;BME280;5143;42.584;23.164;2023-04-20T02:19:12;92170.69;;;8.36;100.00
10202;BME280;5143;42.584;23.164;2023-04-20T02:21:39;92167.03;;;8.39;100.00
10202;BME280;5143;42.584;23.164;2023-04-20T02:24:06;92171.44;;;8.37;100.00
10202;BME280;5143;42.584;23.164;2023-04-20T02:26:32;92167.22;;;8.36;100.00
10202;BME280;5143;42.584;23.164;2023-04-20T02:28:59;92164.34;;;8.45;100.00
10202;BME280;5143;42.584;23.164;2023-04-20T02:31:27;92173.59;;;8.53;100.00
10202;BME280;5143;42.584;23.164;2023-04-20T02:33:54;92162.44;;;8.51;100.00
10202;BME280;5143;42.584;23.164;2023-04-20T02:36:21;92167.94;;;8.56;100.00
10202;BME280;5143;42.584;23.164;2023-04-20T02:38:47;92164.69;;;8.52;100.00
10202;BME280;5143;42.584;23.164;2023-04-20T02:41:14;92158.03;;;8.53;100.00
10202;BME280;5143;42.584;23.164;2023-04-20T02:43:41;92159.34;;;8.38;100.00
10202;BME280;5143;42.584;23.164;2023-04-20T02:46:08;92161.72;;;8.30;100.00
10202;BME280;5143;42.584;23.164;2023-04-20T02:48:36;92154.38;;;8.36;100.00
10202;BME280;5143;42.584;23.164;2023-04-20T02:51:03;92166.75;;;8.37;100.00
10202;BME280;5143;42.584;23.164;2023-04-20T02:53:29;92163.59;;;8.44;100.00
10202;BME280;5143;42.584;23.164;2023-04-20T02:55:56;92164.63;;;8.47;100.00
10202;BME280;5143;42.584;23.164;2023-04-20T02:58:23;92163.19;;;8.51;100.00
10202;BME280;5143;42.584;23.164;2023-04-20T03:00:50;92166.81;;;8.43;100.00
10202;BME280;5143;42.584;23.164;2023-04-20T03:03:17;92167.81;;;8.45;100.00
10202;BME280;5143;42.584;23.164;2023-04-20T03:05:46;92165.09;;;8.25;100.00
10202;BME280;5143;42.584;23.164;2023-04-20T03:08:13;92166.19;;;8.33;100.00
10202;BME280;5143;42.584;23.164;2023-04-20T03:10:40;92173.66;;;8.38;100.00
10202;BME280;5143;42.584;23.164;2023-04-20T03:13:06;92164.84;;;8.43;100.00
10202;BME280;5143;42.584;23.164;2023-04-20T03:15:33;92168.22;;;8.38;100.00
10202;BME280;5143;42.584;23.164;2023-04-20T03:18:00;92165.06;;;8.40;100.00
10202;BME280;5143;42.584;23.164;2023-04-20T03:20:28;92170.06;;;8.47;100.00
10202;BME280;5143;42.584;23.164;2023-04-20T03:22:56;92171.69;;;8.39;100.00
10202;BME280;5143;42.584;23.164;2023-04-20T03:25:23;92168.03;;;8.42;100.00
10202;BME280;5143;42.584;23.164;2023-04-20T03:27:50;92167.81;;;8.45;100.00
10202;BME280;5143;42.584;23.164;2023-04-20T03:30:16;92167.88;;;8.51;100.00
10202;BME280;5143;42.584;23.164;2023-04-20T03:32:43;92174.34;;;8.53;100.00
10202;BME280;5143;42.584;23.164;2023-04-20T03:35:10;92172.84;;;8.52;100.00
10202;BME280;5143;42.584;23.164;2023-04-20T03:37:37;92176.25;;;8.47;100.00
10202;BME280;5143;42.584;23.164;2023-04-20T03:40:06;92173.53;;;8.27;100.00
10202;BME280;5143;42.584;23.164;2023-04-20T03:42:34;92173.00;;;8.23;100.00
10202;BME280;5143;42.584;23.164;2023-04-20T03:45:01;92162.66;;;8.27;100.00
10202;BME280;5143;42.584;23.164;2023-04-20T03:47:28;92175.59;;;8.32;100.00
10202;BME280;5143;42.584;23.164;2023-04-20T03:49:55;92170.00;;;8.21;100.00
10202;BME280;5143;42.584;23.164;2023-04-20T03:52:21;92177.59;;;8.17;100.00
10202;BME280;5143;42.584;23.164;2023-04-20T03:54:48;92178.56;;;8.14;100.00
10202;BME280;5143;42.584;23.164;2023-04-20T03:57:17;92173.81;;;8.09;100.00
10202;BME280;5143;42.584;23.164;2023-04-20T03:59:43;92181.69;;;8.07;100.00
10202;BME280;5143;42.584;23.164;2023-04-20T04:02:10;92179.38;;;8.00;100.00
10202;BME280;5143;42.584;23.164;2023-04-20T04:04:37;92182.38;;;8.02;100.00
10202;BME280;5143;42.584;23.164;2023-04-20T04:07:04;92188.41;;;8.11;100.00
10202;BME280;5143;42.584;23.164;2023-04-20T04:09:31;92172.84;;;8.12;100.00
10202;BME280;5143;42.584;23.164;2023-04-20T04:11:58;92185.22;;;8.13;100.00
10202;BME280;5143;42.584;23.164;2023-04-20T04:14:27;92184.00;;;8.14;100.00
10202;BME280;5143;42.584;23.164;2023-04-20T04:16:54;92186.50;;;8.17;100.00
10202;BME280;5143;42.584;23.164;2023-04-20T04:19:21;92184.56;;;8.18;100.00
10202;BME280;5143;42.584;23.164;2023-04-20T04:21:48;92178.28;;;8.12;100.00
10202;BME280;5143;42.584;23.164;2023-04-20T04:24:15;92180.75;;;8.10;100.00
10202;BME280;5143;42.584;23.164;2023-04-20T04:26:42;92182.78;;;8.15;100.00
10202;BME280;5143;42.584;23.164;2023-04-20T04:29:10;92182.59;;;8.18;100.00
10202;BME280;5143;42.584;23.164;2023-04-20T04:31:38;92182.00;;;7.94;100.00
10202;BME280;5143;42.584;23.164;2023-04-20T04:34:04;92184.13;;;8.05;100.00
10202;BME280;5143;42.584;23.164;2023-04-20T04:36:31;92184.25;;;8.16;100.00
10202;BME280;5143;42.584;23.164;2023-04-20T04:38:58;92188.34;;;8.26;100.00
10202;BME280;5143;42.584;23.164;2023-04-20T04:41:25;92199.38;;;8.37;100.00
10202;BME280;5143;42.584;23.164;2023-04-20T04:43:51;92202.94;;;8.43;100.00
10202;BME280;5143;42.584;23.164;2023-04-20T04:46:18;92208.63;;;8.45;100.00
10202;BME280;5143;42.584;23.164;2023-04-20T04:48:47;92207.88;;;8.45;100.00
10202;BME280;5143;42.584;23.164;2023-04-20T04:51:13;92216.34;;;8.52;100.00
10202;BME280;5143;42.584;23.164;2023-04-20T04:53:40;92204.53;;;8.55;100.00
10202;BME280;5143;42.584;23.164;2023-04-20T04:56:11;92203.13;;;8.65;100.00
10202;BME280;5143;42.584;23.164;2023-04-20T04:58:38;92205.19;;;8.70;100.00
10202;BME280;5143;42.584;23.164;2023-04-20T05:01:05;92204.44;;;8.70;100.00
10202;BME280;5143;42.584;23.164;2023-04-20T05:03:32;92214.16;;;8.76;100.00
10202;BME280;5143;42.584;23.164;2023-04-20T05:06:00;92212.66;;;8.75;100.00
10202;BME280;5143;42.584;23.164;2023-04-20T05:08:27;92214.94;;;8.82;100.00
10202;BME280;5143;42.584;23.164;2023-04-20T05:10:53;92217.25;;;8.89;100.00
10202;BME280;5143;42.584;23.164;2023-04-20T05:13:20;92210.56;;;8.90;100.00
10202;BME280;5143;42.584;23.164;2023-04-20T05:15:47;92217.63;;;9.03;100.00
10202;BME280;5143;42.584;23.164;2023-04-20T05:18:14;92221.63;;;9.07;100.00
10202;BME280;5143;42.584;23.164;2023-04-20T05:20:41;92225.81;;;9.03;100.00
10202;BME280;5143;42.584;23.164;2023-04-20T05:23:09;92215.16;;;9.05;100.00
10202;BME280;5143;42.584;23.164;2023-04-20T05:25:36;92224.28;;;9.02;100.00
10202;BME280;5143;42.584;23.164;2023-04-20T05:28:03;92222.59;;;9.04;100.00
10202;BME280;5143;42.584;23.164;2023-04-20T05:30:30;92232.25;;;9.05;100.00
10202;BME280;5143;42.584;23.164;2023-04-20T05:32:56;92230.53;;;9.08;100.00
10202;BME280;5143;42.584;23.164;2023-04-20T05:35:23;92226.38;;;9.12;100.00
10202;BME280;5143;42.584;23.164;2023-04-20T05:37:50;92230.91;;;9.21;100.00
10202;BME280;5143;42.584;23.164;2023-04-20T05:40:18;92223.25;;;9.19;100.00
10202;BME280;5143;42.584;23.164;2023-04-20T05:42:45;92231.28;;;9.34;100.00
10202;BME280;5143;42.584;23.164;2023-04-20T05:45:12;92224.66;;;9.40;100.00
10202;BME280;5143;42.584;23.164;2023-04-20T05:47:38;92234.00;;;9.34;100.00
10202;BME280;5143;42.584;23.164;2023-04-20T05:50:06;92234.53;;;9.38;100.00
10202;BME280;5143;42.584;23.164;2023-04-20T05:52:33;92237.69;;;9.31;100.00
10202;BME280;5143;42.584;23.164;2023-04-20T05:55:00;92241.00;;;9.40;100.00
10202;BME280;5143;42.584;23.164;2023-04-20T05:57:29;92242.53;;;9.47;100.00
10202;BME280;5143;42.584;23.164;2023-04-20T05:59:56;92224.91;;;9.42;100.00
10202;BME280;5143;42.584;23.164;2023-04-20T06:02:22;92233.66;;;9.52;100.00
10202;BME280;5143;42.584;23.164;2023-04-20T06:04:49;92246.50;;;9.46;100.00
10202;BME280;5143;42.584;23.164;2023-04-20T06:07:16;92242.03;;;9.48;100.00
10202;BME280;5143;42.584;23.164;2023-04-20T06:09:42;92244.97;;;9.45;100.00
10202;BME280;5143;42.584;23.164;2023-04-20T06:12:09;92238.06;;;9.44;100.00
10202;BME280;5143;42.584;23.164;2023-04-20T06:14:37;92242.44;;;9.36;100.00
10202;BME280;5143;42.584;23.164;2023-04-20T06:17:04;92244.00;;;9.48;100.00
10202;BME280;5143;42.584;23.164;2023-04-20T06:19:31;92243.84;;;9.57;100.00
10202;BME280;5143;42.584;23.164;2023-04-20T06:21:58;92239.19;;;9.63;100.00
10202;BME280;5143;42.584;23.164;2023-04-20T06:24:24;92238.69;;;9.65;100.00
10202;BME280;5143;42.584;23.164;2023-04-20T06:26:52;92242.69;;;9.64;100.00
10202;BME280;5143;42.584;23.164;2023-04-20T06:29:19;92257.47;;;9.57;100.00
10202;BME280;5143;42.584;23.164;2023-04-20T06:31:47;92246.88;;;9.65;100.00
10202;BME280;5143;42.584;23.164;2023-04-20T06:34:13;92245.16;;;9.67;100.00
10202;BME280;5143;42.584;23.164;2023-04-20T06:36:41;92244.44;;;9.67;100.00
10202;BME280;5143;42.584;23.164;2023-04-20T06:39:08;92242.72;;;9.69;100.00
10202;BME280;5143;42.584;23.164;2023-04-20T06:41:36;92252.16;;;9.74;100.00
10202;BME280;5143;42.584;23.164;2023-04-20T06:44:03;92254.34;;;9.70;100.00
10202;BME280;5143;42.584;23.164;2023-04-20T06:46:30;92249.94;;;9.72;100.00
10202;BME280;5143;42.584;23.164;2023-04-20T06:48:58;92255.72;;;9.85;100.00
10202;BME280;5143;42.584;23.164;2023-04-20T06:51:25;92262.13;;;9.82;100.00
10202;BME280;5143;42.584;23.164;2023-04-20T06:53:52;92262.22;;;9.93;100.00
10202;BME280;5143;42.584;23.164;2023-04-20T06:56:19;92257.81;;;10.01;100.00
10202;BME280;5143;42.584;23.164;2023-04-20T06:58:46;92264.25;;;10.04;100.00
10202;BME280;5143;42.584;23.164;2023-04-20T07:01:13;92271.69;;;10.03;100.00
10202;BME280;5143;42.584;23.164;2023-04-20T07:03:39;92270.47;;;10.04;100.00
10202;BME280;5143;42.584;23.164;2023-04-20T07:06:08;92277.41;;;10.05;100.00
10202;BME280;5143;42.584;23.164;2023-04-20T07:08:36;92277.59;;;9.96;100.00
10202;BME280;5143;42.584;23.164;2023-04-20T07:11:04;92277.06;;;9.92;100.00
10202;BME280;5143;42.584;23.164;2023-04-20T07:13:31;92281.56;;;9.95;100.00
10202;BME280;5143;42.584;23.164;2023-04-20T07:15:57;92278.50;;;9.82;100.00
10202;BME280;5143;42.584;23.164;2023-04-20T07:18:24;92271.34;;;9.90;100.00
10202;BME280;5143;42.584;23.164;2023-04-20T07:20:51;92282.25;;;9.90;100.00
10202;BME280;5143;42.584;23.164;2023-04-20T07:23:19;92277.06;;;9.92;100.00
10202;BME280;5143;42.584;23.164;2023-04-20T07:25:46;92270.09;;;9.86;100.00
10202;BME280;5143;42.584;23.164;2023-04-20T07:28:13;92275.56;;;9.86;100.00
10202;BME280;5143;42.584;23.164;2023-04-20T07:30:40;92274.50;;;9.83;100.00
10202;BME280;5143;42.584;23.164;2023-04-20T07:33:06;92279.06;;;9.97;100.00
10202;BME280;5143;42.584;23.164;2023-04-20T07:35:35;92281.84;;;10.03;100.00
10202;BME280;5143;42.584;23.164;2023-04-20T07:38:02;92272.69;;;10.06;100.00
10202;BME280;5143;42.584;23.164;2023-04-20T07:40:31;92280.03;;;9.94;100.00
10202;BME280;5143;42.584;23.164;2023-04-20T07:42:57;92276.09;;;9.95;100.00
10202;BME280;5143;42.584;23.164;2023-04-20T07:45:24;92288.44;;;9.85;100.00
10202;BME280;5143;42.584;23.164;2023-04-20T07:47:51;92278.22;;;9.80;100.00
10202;BME280;5143;42.584;23.164;2023-04-20T07:50:19;92272.06;;;9.85;100.00
10202;BME280;5143;42.584;23.164;2023-04-20T07:52:46;92269.72;;;9.73;100.00
10202;BME280;5143;42.584;23.164;2023-04-20T07:55:13;92270.34;;;9.88;100.00
10202;BME280;5143;42.584;23.164;2023-04-20T07:57:44;92278.00;;;9.84;100.00
10202;BME280;5143;42.584;23.164;2023-04-20T08:00:11;92280.59;;;9.98;100.00
10202;BME280;5143;42.584;23.164;2023-04-20T08:02:39;92275.66;;;10.02;100.00
10202;BME280;5143;42.584;23.164;2023-04-20T08:05:06;92280.66;;;10.09;100.00
10202;BME280;5143;42.584;23.164;2023-04-20T08:07:34;92278.75;;;10.16;100.00
10202;BME280;5143;42.584;23.164;2023-04-20T08:10:01;92277.56;;;10.28;100.00
10202;BME280;5143;42.584;23.164;2023-04-20T08:12:28;92280.88;;;10.43;100.00
10202;BME280;5143;42.584;23.164;2023-04-20T08:14:56;92285.63;;;10.48;100.00
10202;BME280;5143;42.584;23.164;2023-04-20T08:17:25;92283.81;;;10.82;100.00
10202;BME280;5143;42.584;23.164;2023-04-20T08:19:51;92282.84;;;10.90;100.00
10202;BME280;5143;42.584;23.164;2023-04-20T08:22:18;92291.25;;;10.81;100.00
10202;BME280;5143;42.584;23.164;2023-04-20T08:24:45;92289.59;;;11.11;100.00
10202;BME280;5143;42.584;23.164;2023-04-20T08:27:12;92290.84;;;11.10;100.00
10202;BME280;5143;42.584;23.164;2023-04-20T08:29:39;92284.16;;;11.11;100.00
10202;BME280;5143;42.584;23.164;2023-04-20T08:32:07;92291.06;;;11.01;100.00
10202;BME280;5143;42.584;23.164;2023-04-20T08:34:35;92290.59;;;11.08;100.00
10202;BME280;5143;42.584;23.164;2023-04-20T08:37:02;92287.13;;;11.19;100.00
10202;BME280;5143;42.584;23.164;2023-04-20T08:39:29;92297.53;;;10.98;100.00
10202;BME280;5143;42.584;23.164;2023-04-20T08:41:55;92288.56;;;10.92;100.00
10202;BME280;5143;42.584;23.164;2023-04-20T08:44:22;92288.31;;;10.96;100.00
10202;BME280;5143;42.584;23.164;2023-04-20T08:46:49;92294.56;;;11.13;100.00
10202;BME280;5143;42.584;23.164;2023-04-20T08:49:18;92293.06;;;11.06;100.00
10202;BME280;5143;42.584;23.164;2023-04-20T08:51:46;92270.19;;;10.87;100.00
10202;BME280;5143;42.584;23.164;2023-04-20T08:54:13;92292.56;;;11.02;100.00
10202;BME280;5143;42.584;23.164;2023-04-20T08:56:42;92292.03;;;10.87;100.00
10202;BME280;5143;42.584;23.164;2023-04-20T08:59:09;92294.06;;;11.03;100.00
10202;BME280;5143;42.584;23.164;2023-04-20T09:01:39;92300.34;;;11.26;100.00
10202;BME280;5143;42.584;23.164;2023-04-20T09:04:14;92293.63;;;11.33;100.00
10202;BME280;5143;42.584;23.164;2023-04-20T09:06:44;92293.91;;;11.46;100.00
10202;BME280;5143;42.584;23.164;2023-04-20T09:09:11;92294.44;;;11.66;100.00
10202;BME280;5143;42.584;23.164;2023-04-20T09:11:37;92295.44;;;11.63;100.00
10202;BME280;5143;42.584;23.164;2023-04-20T09:14:06;92297.16;;;11.61;100.00
10202;BME280;5143;42.584;23.164;2023-04-20T09:16:35;92297.63;;;11.54;100.00
10202;BME280;5143;42.584;23.164;2023-04-20T09:19:04;92293.38;;;11.31;100.00
10202;BME280;5143;42.584;23.164;2023-04-20T09:21:30;92298.88;;;11.36;100.00
10202;BME280;5143;42.584;23.164;2023-04-20T09:24:00;92292.69;;;11.58;100.00
10202;BME280;5143;42.584;23.164;2023-04-20T09:26:30;92289.22;;;11.63;100.00
10202;BME280;5143;42.584;23.164;2023-04-20T09:28:58;92293.63;;;11.27;100.00
10202;BME280;5143;42.584;23.164;2023-04-20T09:31:25;92292.16;;;11.54;100.00
10202;BME280;5143;42.584;23.164;2023-04-20T09:33:56;92292.19;;;11.65;100.00
10202;BME280;5143;42.584;23.164;2023-04-20T09:36:23;92286.97;;;11.50;100.00
10202;BME280;5143;42.584;23.164;2023-04-20T09:39:02;92291.44;;;11.59;100.00
10202;BME280;5143;42.584;23.164;2023-04-20T09:41:30;92293.47;;;11.75;100.00
10202;BME280;5143;42.584;23.164;2023-04-20T09:43:58;92291.22;;;11.79;100.00
10202;BME280;5143;42.584;23.164;2023-04-20T09:46:27;92292.97;;;12.04;100.00
10202;BME280;5143;42.584;23.164;2023-04-20T09:48:55;92295.47;;;12.24;100.00
10202;BME280;5143;42.584;23.164;2023-04-20T09:51:22;92299.31;;;12.79;100.00
10202;BME280;5143;42.584;23.164;2023-04-20T09:53:50;92287.50;;;13.58;100.00
10202;BME280;5143;42.584;23.164;2023-04-20T09:56:20;92299.19;;;14.29;100.00
10202;BME280;5143;42.584;23.164;2023-04-20T09:58:48;92305.22;;;14.57;86.88
10202;BME280;5143;42.584;23.164;2023-04-20T10:01:15;92303.00;;;15.23;87.77
10202;BME280;5143;42.584;23.164;2023-04-20T10:03:42;92296.41;;;14.89;87.31
10202;BME280;5143;42.584;23.164;2023-04-20T10:06:17;92305.41;;;15.32;78.62
10202;BME280;5143;42.584;23.164;2023-04-20T10:08:44;92306.03;;;16.13;70.77
10202;BME280;5143;42.584;23.164;2023-04-20T10:11:24;92310.19;;;15.87;65.48
10202;BME280;5143;42.584;23.164;2023-04-20T10:13:51;92287.66;;;15.70;69.57
10202;BME280;5143;42.584;23.164;2023-04-20T10:16:18;92304.31;;;15.59;69.85
10202;BME280;5143;42.584;23.164;2023-04-20T10:18:55;92290.16;;;14.88;71.07
10202;BME280;5143;42.584;23.164;2023-04-20T10:21:22;92283.34;;;14.16;81.91
10202;BME280;5143;42.584;23.164;2023-04-20T10:23:49;92293.59;;;13.81;92.12
10202;BME280;5143;42.584;23.164;2023-04-20T10:26:16;92279.97;;;13.70;96.47
10202;BME280;5143;42.584;23.164;2023-04-20T10:28:44;92275.88;;;13.82;100.00
10202;BME280;5143;42.584;23.164;2023-04-20T10:31:12;92284.03;;;14.23;95.15
10202;BME280;5143;42.584;23.164;2023-04-20T10:33:49;92276.06;;;14.73;86.58
10202;BME280;5143;42.584;23.164;2023-04-20T10:36:25;92286.81;;;14.95;80.38
10202;BME280;5143;42.584;23.164;2023-04-20T10:38:52;92285.06;;;15.16;78.54
10202;BME280;5143;42.584;23.164;2023-04-20T10:41:20;92287.59;;;15.14;76.35
10202;BME280;5143;42.584;23.164;2023-04-20T10:43:48;92297.28;;;15.21;78.64
10202;BME280;5143;42.584;23.164;2023-04-20T10:46:16;92285.69;;;15.28;74.14
10202;BME280;5143;42.584;23.164;2023-04-20T10:48:53;92292.72;;;15.48;73.76
10202;BME280;5143;42.584;23.164;2023-04-20T10:51:20;92291.94;;;15.28;71.23
10202;BME280;5143;42.584;23.164;2023-04-20T10:54:00;92289.41;;;14.39;78.01
10202;BME280;5143;42.584;23.164;2023-04-20T10:56:26;92280.88;;;13.83;82.68
10202;BME280;5143;42.584;23.164;2023-04-20T10:59:05;92283.97;;;13.63;90.46
10202;BME280;5143;42.584;23.164;2023-04-20T11:01:32;92286.44;;;13.31;93.61
10202;BME280;5143;42.584;23.164;2023-04-20T11:03:58;92288.22;;;13.23;95.42
10202;BME280;5143;42.584;23.164;2023-04-20T11:06:25;92261.91;;;12.92;100.00
10202;BME280;5143;42.584;23.164;2023-04-20T11:08:53;92273.78;;;13.17;100.00
10202;BME280;5143;42.584;23.164;2023-04-20T11:11:21;92273.91;;;13.41;99.33
10202;BME280;5143;42.584;23.164;2023-04-20T11:13:49;92279.09;;;13.50;92.27
10202;BME280;5143;42.584;23.164;2023-04-20T11:16:18;92270.56;;;13.95;84.55
10202;BME280;5143;42.584;23.164;2023-04-20T11:18:52;92283.47;;;14.59;78.93
10202;BME280;5143;42.584;23.164;2023-04-20T11:21:20;92270.94;;;14.88;78.11
10202;BME280;5143;42.584;23.164;2023-04-20T11:23:48;92284.63;;;14.69;74.15
10202;BME280;5143;42.584;23.164;2023-04-20T11:26:15;92282.16;;;14.66;76.19
10202;BME280;5143;42.584;23.164;2023-04-20T11:28:52;92267.91;;;14.13;80.91
10202;BME280;5143;42.584;23.164;2023-04-20T11:31:21;92271.38;;;13.84;85.36
10202;BME280;5143;42.584;23.164;2023-04-20T11:33:48;92274.09;;;13.90;82.34
10202;BME280;5143;42.584;23.164;2023-04-20T11:36:18;92262.84;;;13.88;90.71
10202;BME280;5143;42.584;23.164;2023-04-20T11:38:45;92268.06;;;14.21;89.56
10202;BME280;5143;42.584;23.164;2023-04-20T11:41:12;92262.50;;;14.32;89.88
10202;BME280;5143;42.584;23.164;2023-04-20T11:43:39;92262.63;;;14.45;84.38
10202;BME280;5143;42.584;23.164;2023-04-20T11:46:18;92256.75;;;14.06;83.77
10202;BME280;5143;42.584;23.164;2023-04-20T11:48:46;92262.34;;;14.49;83.52
10202;BME280;5143;42.584;23.164;2023-04-20T11:51:14;92243.03;;;14.78;79.99
10202;BME280;5143;42.584;23.164;2023-04-20T11:53:41;92261.66;;;15.10;70.90
10202;BME280;5143;42.584;23.164;2023-04-20T11:56:08;92259.06;;;14.99;68.78
10202;BME280;5143;42.584;23.164;2023-04-20T11:58:35;92245.69;;;14.65;72.34
10202;BME280;5143;42.584;23.164;2023-04-20T12:01:03;92242.88;;;15.14;69.72
10202;BME280;5143;42.584;23.164;2023-04-20T12:03:30;92239.28;;;15.75;68.00
10202;BME280;5143;42.584;23.164;2023-04-20T12:05:59;92250.09;;;16.05;63.44
10202;BME280;5143;42.584;23.164;2023-04-20T12:08:26;92253.72;;;16.13;63.06
10202;BME280;5143;42.584;23.164;2023-04-20T12:10:52;92244.50;;;16.68;62.13
10202;BME280;5143;42.584;23.164;2023-04-20T12:13:19;92250.13;;;17.15;57.37
10202;BME280;5143;42.584;23.164;2023-04-20T12:15:46;92250.16;;;16.89;57.10
10202;BME280;5143;42.584;23.164;2023-04-20T12:18:12;92244.88;;;16.46;58.04
10202;BME280;5143;42.584;23.164;2023-04-20T12:20:39;92252.44;;;16.14;59.06
10202;BME280;5143;42.584;23.164;2023-04-20T12:23:07;92248.19;;;15.49;60.02
10202;BME280;5143;42.584;23.164;2023-04-20T12:25:34;92240.38;;;14.92;62.33
10202;BME280;5143;42.584;23.164;2023-04-20T12:28:01;92225.56;;;14.57;63.92
10202;BME280;5143;42.584;23.164;2023-04-20T12:30:31;92230.31;;;14.33;71.58
10202;BME280;5143;42.584;23.164;2023-04-20T12:32:58;92215.75;;;13.54;79.98
10202;BME280;5143;42.584;23.164;2023-04-20T12:35:26;92219.44;;;13.21;80.19
10202;BME280;5143;42.584;23.164;2023-04-20T12:37:52;92218.53;;;12.96;78.84
10202;BME280;5143;42.584;23.164;2023-04-20T12:40:21;92211.84;;;12.92;84.20
10202;BME280;5143;42.584;23.164;2023-04-20T12:42:48;92223.00;;;13.05;82.33
10202;BME280;5143;42.584;23.164;2023-04-20T12:45:14;92201.91;;;12.89;79.85
10202;BME280;5143;42.584;23.164;2023-04-20T12:47:41;92214.81;;;12.94;85.50
10202;BME280;5143;42.584;23.164;2023-04-20T12:50:08;92214.03;;;13.05;88.53
10202;BME280;5143;42.584;23.164;2023-04-20T12:52:35;92208.78;;;13.07;99.85
10202;BME280;5143;42.584;23.164;2023-04-20T12:55:02;92201.34;;;13.01;100.00
10202;BME280;5143;42.584;23.164;2023-04-20T12:57:30;92199.47;;;13.32;100.00
10202;BME280;5143;42.584;23.164;2023-04-20T12:59:57;92199.94;;;13.30;100.00